sensor_id;sensor_type;location;lat;lon;timestamp;P1;durP1;ratioP1;P2;durP2;ratioP2
55409;SDS011;41279;43.546;16.426;2022-11-20T00:00:47;13.02;;;2.78;;
55409;SDS011;41279;43.546;16.426;2022-11-20T00:03:12;18.80;;;2.72;;
55409;SDS011;41279;43.546;16.426;2022-11-20T00:05:38;20.38;;;2.70;;
55409;SDS011;41279;43.546;16.426;2022-11-20T00:08:03;13.52;;;2.83;;
55409;SDS011;41279;43.546;16.426;2022-11-20T00:10:29;13.32;;;2.60;;
55409;SDS011;41279;43.546;16.426;2022-11-20T00:12:54;19.05;;;4.50;;
55409;SDS011;41279;43.546;16.426;2022-11-20T00:15:20;13.23;;;2.60;;
55409;SDS011;41279;43.546;16.426;2022-11-20T00:17:45;15.52;;;3.38;;
55409;SDS011;41279;43.546;16.426;2022-11-20T00:20:11;16.05;;;2.92;;
55409;SDS011;41279;43.546;16.426;2022-11-20T00:22:37;8.63;;;2.53;;
55409;SDS011;41279;43.546;16.426;2022-11-20T00:25:02;13.70;;;2.13;;
55409;SDS011;41279;43.546;16.426;2022-11-20T00:27:27;17.80;;;3.10;;
55409;SDS011;41279;43.546;16.426;2022-11-20T00:29:53;16.02;;;4.20;;
55409;SDS011;41279;43.546;16.426;2022-11-20T00:32:18;13.23;;;2.28;;
55409;SDS011;41279;43.546;16.426;2022-11-20T00:34:44;16.23;;;2.67;;
55409;SDS011;41279;43.546;16.426;2022-11-20T00:37:09;15.52;;;2.42;;
55409;SDS011;41279;43.546;16.426;2022-11-20T00:39:34;12.23;;;2.15;;
55409;SDS011;41279;43.546;16.426;2022-11-20T00:41:59;11.23;;;3.10;;
55409;SDS011;41279;43.546;16.426;2022-11-20T00:44:25;12.68;;;2.45;;
55409;SDS011;41279;43.546;16.426;2022-11-20T00:46:57;15.15;;;2.35;;
55409;SDS011;41279;43.546;16.426;2022-11-20T00:49:22;11.82;;;2.55;;
55409;SDS011;41279;43.546;16.426;2022-11-20T00:51:47;20.33;;;2.78;;
55409;SDS011;41279;43.546;16.426;2022-11-20T00:54:13;14.35;;;2.70;;
55409;SDS011;41279;43.546;16.426;2022-11-20T00:56:38;17.40;;;2.20;;
55409;SDS011;41279;43.546;16.426;2022-11-20T00:59:03;23.15;;;2.95;;
55409;SDS011;41279;43.546;16.426;2022-11-20T01:01:29;17.42;;;2.42;;
55409;SDS011;41279;43.546;16.426;2022-11-20T01:04:01;13.02;;;2.30;;
55409;SDS011;41279;43.546;16.426;2022-11-20T01:06:27;12.18;;;2.20;;
55409;SDS011;41279;43.546;16.426;2022-11-20T01:08:58;13.02;;;2.50;;
55409;SDS011;41279;43.546;16.426;2022-11-20T01:11:26;11.93;;;2.10;;
55409;SDS011;41279;43.546;16.426;2022-11-20T01:13:53;15.25;;;2.50;;
55409;SDS011;41279;43.546;16.426;2022-11-20T01:16:21;14.32;;;2.58;;
55409;SDS011;41279;43.546;16.426;2022-11-20T01:18:49;13.23;;;2.30;;
55409;SDS011;41279;43.546;16.426;2022-11-20T01:21:18;14.77;;;3.03;;
55409;SDS011;41279;43.546;16.426;2022-11-20T01:23:51;17.70;;;2.50;;
55409;SDS011;41279;43.546;16.426;2022-11-20T01:26:18;12.25;;;2.25;;
55409;SDS011;41279;43.546;16.426;2022-11-20T01:28:48;10.77;;;2.50;;
55409;SDS011;41279;43.546;16.426;2022-11-20T01:33:45;13.07;;;2.83;;
55409;SDS011;41279;43.546;16.426;2022-11-20T01:36:12;7.28;;;2.33;;
55409;SDS011;41279;43.546;16.426;2022-11-20T01:38:39;12.40;;;2.42;;
55409;SDS011;41279;43.546;16.426;2022-11-20T01:41:05;10.38;;;2.30;;
55409;SDS011;41279;43.546;16.426;2022-11-20T01:43:31;9.20;;;2.53;;
55409;SDS011;41279;43.546;16.426;2022-11-20T01:48:41;16.15;;;3.60;;
55409;SDS011;41279;43.546;16.426;2022-11-20T01:51:22;8.75;;;2.80;;
55409;SDS011;41279;43.546;16.426;2022-11-20T01:53:54;15.73;;;3.05;;
55409;SDS011;41279;43.546;16.426;2022-11-20T01:56:23;14.77;;;2.92;;
55409;SDS011;41279;43.546;16.426;2022-11-20T01:58:53;11.27;;;2.70;;
55409;SDS011;41279;43.546;16.426;2022-11-20T02:01:21;13.93;;;2.80;;
55409;SDS011;41279;43.546;16.426;2022-11-20T02:03:46;13.70;;;3.13;;
55409;SDS011;41279;43.546;16.426;2022-11-20T02:06:23;13.35;;;2.90;;
55409;SDS011;41279;43.546;16.426;2022-11-20T02:08:52;8.20;;;2.78;;
55409;SDS011;41279;43.546;16.426;2022-11-20T02:11:19;16.63;;;2.65;;
55409;SDS011;41279;43.546;16.426;2022-11-20T02:13:45;14.57;;;3.20;;
55409;SDS011;41279;43.546;16.426;2022-11-20T02:18:58;9.27;;;3.00;;
55409;SDS011;41279;43.546;16.426;2022-11-20T02:21:37;11.82;;;3.05;;
55409;SDS011;41279;43.546;16.426;2022-11-20T02:24:17;6.68;;;2.47;;
55409;SDS011;41279;43.546;16.426;2022-11-20T02:26:49;13.82;;;2.80;;
55409;SDS011;41279;43.546;16.426;2022-11-20T02:29:25;8.80;;;3.08;;
55409;SDS011;41279;43.546;16.426;2022-11-20T02:32:21;12.48;;;3.15;;
55409;SDS011;41279;43.546;16.426;2022-11-20T02:34:47;12.00;;;2.60;;
55409;SDS011;41279;43.546;16.426;2022-11-20T02:37:12;7.55;;;2.58;;
55409;SDS011;41279;43.546;16.426;2022-11-20T02:39:39;9.13;;;2.70;;
55409;SDS011;41279;43.546;16.426;2022-11-20T02:42:05;6.13;;;2.70;;
55409;SDS011;41279;43.546;16.426;2022-11-20T02:44:30;9.35;;;2.90;;
55409;SDS011;41279;43.546;16.426;2022-11-20T02:46:58;8.32;;;2.60;;
55409;SDS011;41279;43.546;16.426;2022-11-20T02:49:24;8.68;;;2.50;;
55409;SDS011;41279;43.546;16.426;2022-11-20T02:51:50;9.77;;;2.80;;
55409;SDS011;41279;43.546;16.426;2022-11-20T02:54:16;10.40;;;2.75;;
55409;SDS011;41279;43.546;16.426;2022-11-20T02:56:41;9.73;;;2.78;;
55409;SDS011;41279;43.546;16.426;2022-11-20T02:59:07;8.93;;;2.53;;
55409;SDS011;41279;43.546;16.426;2022-11-20T03:01:32;7.82;;;2.00;;
55409;SDS011;41279;43.546;16.426;2022-11-20T03:03:58;14.82;;;2.92;;
55409;SDS011;41279;43.546;16.426;2022-11-20T03:06:24;8.07;;;2.58;;
55409;SDS011;41279;43.546;16.426;2022-11-20T03:08:49;6.50;;;2.15;;
55409;SDS011;41279;43.546;16.426;2022-11-20T03:11:14;4.70;;;2.00;;
55409;SDS011;41279;43.546;16.426;2022-11-20T03:13:40;9.30;;;2.03;;
55409;SDS011;41279;43.546;16.426;2022-11-20T03:16:09;8.77;;;2.80;;
55409;SDS011;41279;43.546;16.426;2022-11-20T03:18:37;16.33;;;2.55;;
55409;SDS011;41279;43.546;16.426;2022-11-20T03:21:03;9.73;;;2.30;;
55409;SDS011;41279;43.546;16.426;2022-11-20T03:23:29;10.13;;;2.83;;
55409;SDS011;41279;43.546;16.426;2022-11-20T03:25:56;9.95;;;2.28;;
55409;SDS011;41279;43.546;16.426;2022-11-20T03:28:36;11.00;;;2.58;;
55409;SDS011;41279;43.546;16.426;2022-11-20T03:31:12;10.57;;;2.30;;
55409;SDS011;41279;43.546;16.426;2022-11-20T03:33:39;9.32;;;1.90;;
55409;SDS011;41279;43.546;16.426;2022-11-20T03:36:07;6.53;;;2.10;;
55409;SDS011;41279;43.546;16.426;2022-11-20T03:38:34;7.60;;;2.50;;
55409;SDS011;41279;43.546;16.426;2022-11-20T03:41:01;10.68;;;2.65;;
55409;SDS011;41279;43.546;16.426;2022-11-20T03:43:28;6.88;;;1.88;;
55409;SDS011;41279;43.546;16.426;2022-11-20T03:45:54;7.70;;;1.73;;
55409;SDS011;41279;43.546;16.426;2022-11-20T03:48:19;8.77;;;1.65;;
55409;SDS011;41279;43.546;16.426;2022-11-20T03:50:45;5.80;;;2.35;;
55409;SDS011;41279;43.546;16.426;2022-11-20T03:53:12;7.97;;;2.03;;
55409;SDS011;41279;43.546;16.426;2022-11-20T03:55:38;9.27;;;1.73;;
55409;SDS011;41279;43.546;16.426;2022-11-20T03:58:03;5.70;;;1.75;;
55409;SDS011;41279;43.546;16.426;2022-11-20T04:00:29;6.60;;;1.77;;
55409;SDS011;41279;43.546;16.426;2022-11-20T04:02:57;8.73;;;2.60;;
55409;SDS011;41279;43.546;16.426;2022-11-20T04:05:23;8.38;;;2.08;;
55409;SDS011;41279;43.546;16.426;2022-11-20T04:07:49;8.88;;;2.13;;
55409;SDS011;41279;43.546;16.426;2022-11-20T04:10:14;8.95;;;2.40;;
55409;SDS011;41279;43.546;16.426;2022-11-20T04:12:39;9.88;;;2.38;;
55409;SDS011;41279;43.546;16.426;2022-11-20T04:15:05;11.05;;;2.95;;
55409;SDS011;41279;43.546;16.426;2022-11-20T04:17:30;16.85;;;3.90;;
55409;SDS011;41279;43.546;16.426;2022-11-20T04:19:55;22.27;;;3.25;;
55409;SDS011;41279;43.546;16.426;2022-11-20T04:22:21;12.20;;;2.92;;
55409;SDS011;41279;43.546;16.426;2022-11-20T04:24:46;14.57;;;2.30;;
55409;SDS011;41279;43.546;16.426;2022-11-20T04:27:11;16.27;;;2.63;;
55409;SDS011;41279;43.546;16.426;2022-11-20T04:29:37;7.18;;;1.90;;
55409;SDS011;41279;43.546;16.426;2022-11-20T04:32:02;9.13;;;1.75;;
55409;SDS011;41279;43.546;16.426;2022-11-20T04:34:27;9.40;;;2.00;;
55409;SDS011;41279;43.546;16.426;2022-11-20T04:36:53;11.90;;;2.20;;
55409;SDS011;41279;43.546;16.426;2022-11-20T04:39:18;8.85;;;2.13;;
55409;SDS011;41279;43.546;16.426;2022-11-20T04:41:43;10.77;;;2.83;;
55409;SDS011;41279;43.546;16.426;2022-11-20T04:44:09;10.75;;;2.28;;
55409;SDS011;41279;43.546;16.426;2022-11-20T04:46:37;12.23;;;3.30;;
55409;SDS011;41279;43.546;16.426;2022-11-20T04:49:05;10.30;;;3.30;;
55409;SDS011;41279;43.546;16.426;2022-11-20T04:51:30;9.38;;;2.78;;
55409;SDS011;41279;43.546;16.426;2022-11-20T04:53:56;9.85;;;2.70;;
55409;SDS011;41279;43.546;16.426;2022-11-20T04:56:22;6.18;;;2.17;;
55409;SDS011;41279;43.546;16.426;2022-11-20T04:58:48;6.90;;;2.10;;
55409;SDS011;41279;43.546;16.426;2022-11-20T05:01:14;12.90;;;3.08;;
55409;SDS011;41279;43.546;16.426;2022-11-20T05:03:42;4.82;;;2.13;;
55409;SDS011;41279;43.546;16.426;2022-11-20T05:06:09;10.43;;;2.05;;
55409;SDS011;41279;43.546;16.426;2022-11-20T05:08:36;7.38;;;2.13;;
55409;SDS011;41279;43.546;16.426;2022-11-20T05:11:03;9.32;;;2.42;;
55409;SDS011;41279;43.546;16.426;2022-11-20T05:13:30;9.23;;;2.10;;
55409;SDS011;41279;43.546;16.426;2022-11-20T05:16:00;7.68;;;1.95;;
55409;SDS011;41279;43.546;16.426;2022-11-20T05:18:29;8.82;;;2.38;;
55409;SDS011;41279;43.546;16.426;2022-11-20T05:20:56;7.50;;;2.65;;
55409;SDS011;41279;43.546;16.426;2022-11-20T05:23:22;7.85;;;1.88;;
55409;SDS011;41279;43.546;16.426;2022-11-20T05:25:47;9.93;;;2.17;;
55409;SDS011;41279;43.546;16.426;2022-11-20T05:28:13;11.98;;;1.88;;
55409;SDS011;41279;43.546;16.426;2022-11-20T05:30:39;8.55;;;2.22;;
55409;SDS011;41279;43.546;16.426;2022-11-20T05:33:04;5.82;;;1.70;;
55409;SDS011;41279;43.546;16.426;2022-11-20T05:35:29;6.78;;;2.30;;
55409;SDS011;41279;43.546;16.426;2022-11-20T05:37:54;7.88;;;2.25;;
55409;SDS011;41279;43.546;16.426;2022-11-20T05:40:20;5.43;;;1.70;;
55409;SDS011;41279;43.546;16.426;2022-11-20T05:42:45;9.43;;;2.03;;
55409;SDS011;41279;43.546;16.426;2022-11-20T05:45:10;6.70;;;1.90;;
55409;SDS011;41279;43.546;16.426;2022-11-20T05:47:36;8.70;;;2.20;;
55409;SDS011;41279;43.546;16.426;2022-11-20T05:50:01;5.18;;;1.92;;
55409;SDS011;41279;43.546;16.426;2022-11-20T05:52:30;6.00;;;2.30;;
55409;SDS011;41279;43.546;16.426;2022-11-20T05:54:55;12.50;;;2.35;;
55409;SDS011;41279;43.546;16.426;2022-11-20T05:57:21;5.35;;;2.00;;
55409;SDS011;41279;43.546;16.426;2022-11-20T05:59:46;7.20;;;1.70;;
55409;SDS011;41279;43.546;16.426;2022-11-20T06:02:12;8.70;;;2.10;;
55409;SDS011;41279;43.546;16.426;2022-11-20T06:04:37;6.68;;;2.40;;
55409;SDS011;41279;43.546;16.426;2022-11-20T06:07:04;5.20;;;2.00;;
55409;SDS011;41279;43.546;16.426;2022-11-20T06:09:30;8.20;;;2.33;;
55409;SDS011;41279;43.546;16.426;2022-11-20T06:11:55;9.18;;;3.03;;
55409;SDS011;41279;43.546;16.426;2022-11-20T06:14:21;7.85;;;2.40;;
55409;SDS011;41279;43.546;16.426;2022-11-20T06:16:46;7.18;;;2.10;;
55409;SDS011;41279;43.546;16.426;2022-11-20T06:19:11;9.82;;;1.95;;
55409;SDS011;41279;43.546;16.426;2022-11-20T06:21:37;5.65;;;2.20;;
55409;SDS011;41279;43.546;16.426;2022-11-20T06:24:02;5.63;;;2.25;;
55409;SDS011;41279;43.546;16.426;2022-11-20T06:26:28;9.65;;;2.33;;
55409;SDS011;41279;43.546;16.426;2022-11-20T06:28:53;9.18;;;1.83;;
55409;SDS011;41279;43.546;16.426;2022-11-20T06:31:21;9.32;;;1.88;;
55409;SDS011;41279;43.546;16.426;2022-11-20T06:33:48;11.35;;;2.10;;
55409;SDS011;41279;43.546;16.426;2022-11-20T06:36:15;8.48;;;1.70;;
55409;SDS011;41279;43.546;16.426;2022-11-20T06:38:42;5.10;;;1.63;;
55409;SDS011;41279;43.546;16.426;2022-11-20T06:41:10;9.25;;;1.23;;
55409;SDS011;41279;43.546;16.426;2022-11-20T06:43:40;3.70;;;0.93;;
55409;SDS011;41279;43.546;16.426;2022-11-20T06:46:13;5.85;;;1.20;;
55409;SDS011;41279;43.546;16.426;2022-11-20T06:48:39;5.13;;;1.70;;
55409;SDS011;41279;43.546;16.426;2022-11-20T06:51:06;5.70;;;2.97;;
55409;SDS011;41279;43.546;16.426;2022-11-20T06:53:32;12.93;;;3.78;;
55409;SDS011;41279;43.546;16.426;2022-11-20T06:55:58;14.50;;;5.93;;
55409;SDS011;41279;43.546;16.426;2022-11-20T06:58:31;13.02;;;4.07;;
55409;SDS011;41279;43.546;16.426;2022-11-20T07:00:59;13.43;;;5.13;;
55409;SDS011;41279;43.546;16.426;2022-11-20T07:03:33;23.67;;;7.90;;
55409;SDS011;41279;43.546;16.426;2022-11-20T07:05:59;14.57;;;5.70;;
55409;SDS011;41279;43.546;16.426;2022-11-20T07:08:26;14.18;;;4.63;;
55409;SDS011;41279;43.546;16.426;2022-11-20T07:10:58;7.25;;;3.53;;
55409;SDS011;41279;43.546;16.426;2022-11-20T07:13:32;9.80;;;3.42;;
55409;SDS011;41279;43.546;16.426;2022-11-20T07:16:01;11.93;;;3.92;;
55409;SDS011;41279;43.546;16.426;2022-11-20T07:18:28;22.08;;;4.55;;
55409;SDS011;41279;43.546;16.426;2022-11-20T07:20:53;9.20;;;3.00;;
55409;SDS011;41279;43.546;16.426;2022-11-20T07:23:19;7.47;;;2.00;;
55409;SDS011;41279;43.546;16.426;2022-11-20T07:25:44;6.43;;;1.88;;
55409;SDS011;41279;43.546;16.426;2022-11-20T07:28:10;7.05;;;1.80;;
55409;SDS011;41279;43.546;16.426;2022-11-20T07:30:35;8.20;;;2.30;;
55409;SDS011;41279;43.546;16.426;2022-11-20T07:33:01;10.60;;;2.60;;
55409;SDS011;41279;43.546;16.426;2022-11-20T07:35:26;8.75;;;2.40;;
55409;SDS011;41279;43.546;16.426;2022-11-20T07:37:51;6.10;;;2.08;;
55409;SDS011;41279;43.546;16.426;2022-11-20T07:40:17;7.57;;;2.20;;
55409;SDS011;41279;43.546;16.426;2022-11-20T07:42:53;5.50;;;1.70;;
55409;SDS011;41279;43.546;16.426;2022-11-20T07:45:19;6.95;;;1.98;;
55409;SDS011;41279;43.546;16.426;2022-11-20T07:47:46;10.60;;;3.03;;
55409;SDS011;41279;43.546;16.426;2022-11-20T07:50:12;6.25;;;1.88;;
55409;SDS011;41279;43.546;16.426;2022-11-20T07:52:37;6.88;;;2.10;;
55409;SDS011;41279;43.546;16.426;2022-11-20T07:55:03;9.77;;;2.30;;
55409;SDS011;41279;43.546;16.426;2022-11-20T07:57:28;7.53;;;1.85;;
55409;SDS011;41279;43.546;16.426;2022-11-20T07:59:54;9.63;;;1.98;;
55409;SDS011;41279;43.546;16.426;2022-11-20T08:02:19;3.67;;;1.60;;
55409;SDS011;41279;43.546;16.426;2022-11-20T08:04:44;8.15;;;1.30;;
55409;SDS011;41279;43.546;16.426;2022-11-20T08:07:10;7.47;;;1.45;;
55409;SDS011;41279;43.546;16.426;2022-11-20T08:09:35;6.00;;;1.40;;
55409;SDS011;41279;43.546;16.426;2022-11-20T08:12:00;7.40;;;1.55;;
55409;SDS011;41279;43.546;16.426;2022-11-20T08:14:44;6.43;;;1.40;;
55409;SDS011;41279;43.546;16.426;2022-11-20T08:17:09;5.35;;;1.65;;
55409;SDS011;41279;43.546;16.426;2022-11-20T08:19:35;4.05;;;1.35;;
55409;SDS011;41279;43.546;16.426;2022-11-20T08:22:00;14.50;;;4.55;;
55409;SDS011;41279;43.546;16.426;2022-11-20T08:24:25;5.50;;;2.00;;
55409;SDS011;41279;43.546;16.426;2022-11-20T08:26:51;3.53;;;1.15;;
55409;SDS011;41279;43.546;16.426;2022-11-20T08:29:17;8.23;;;1.58;;
55409;SDS011;41279;43.546;16.426;2022-11-20T08:31:42;4.00;;;1.40;;
55409;SDS011;41279;43.546;16.426;2022-11-20T08:34:07;5.90;;;1.45;;
55409;SDS011;41279;43.546;16.426;2022-11-20T08:36:33;3.75;;;1.20;;
55409;SDS011;41279;43.546;16.426;2022-11-20T08:38:59;7.35;;;1.73;;
55409;SDS011;41279;43.546;16.426;2022-11-20T08:41:25;6.35;;;1.70;;
55409;SDS011;41279;43.546;16.426;2022-11-20T08:44:05;5.25;;;1.52;;
55409;SDS011;41279;43.546;16.426;2022-11-20T08:46:41;5.95;;;1.35;;
55409;SDS011;41279;43.546;16.426;2022-11-20T08:49:09;4.97;;;1.40;;
55409;SDS011;41279;43.546;16.426;2022-11-20T08:51:36;7.57;;;1.40;;
55409;SDS011;41279;43.546;16.426;2022-11-20T08:54:02;7.55;;;1.50;;
55409;SDS011;41279;43.546;16.426;2022-11-20T08:56:28;5.25;;;1.27;;
55409;SDS011;41279;43.546;16.426;2022-11-20T08:58:54;4.45;;;1.30;;
55409;SDS011;41279;43.546;16.426;2022-11-20T09:01:19;7.03;;;1.40;;
55409;SDS011;41279;43.546;16.426;2022-11-20T09:03:46;6.03;;;1.38;;
55409;SDS011;41279;43.546;16.426;2022-11-20T09:06:11;5.30;;;1.52;;
55409;SDS011;41279;43.546;16.426;2022-11-20T09:08:37;9.15;;;1.20;;
55409;SDS011;41279;43.546;16.426;2022-11-20T09:11:03;7.47;;;1.10;;
55409;SDS011;41279;43.546;16.426;2022-11-20T09:13:29;6.45;;;1.40;;
55409;SDS011;41279;43.546;16.426;2022-11-20T09:15:55;6.47;;;1.70;;
55409;SDS011;41279;43.546;16.426;2022-11-20T09:18:22;8.63;;;1.38;;
55409;SDS011;41279;43.546;16.426;2022-11-20T09:20:48;7.80;;;1.58;;
55409;SDS011;41279;43.546;16.426;2022-11-20T09:23:14;7.88;;;1.50;;
55409;SDS011;41279;43.546;16.426;2022-11-20T09:25:39;8.57;;;1.83;;
55409;SDS011;41279;43.546;16.426;2022-11-20T09:28:05;6.68;;;1.33;;
55409;SDS011;41279;43.546;16.426;2022-11-20T09:30:30;5.53;;;1.25;;
55409;SDS011;41279;43.546;16.426;2022-11-20T09:32:56;4.90;;;1.27;;
55409;SDS011;41279;43.546;16.426;2022-11-20T09:35:21;6.10;;;1.30;;
55409;SDS011;41279;43.546;16.426;2022-11-20T09:37:46;4.53;;;1.25;;
55409;SDS011;41279;43.546;16.426;2022-11-20T09:40:22;6.18;;;1.42;;
55409;SDS011;41279;43.546;16.426;2022-11-20T09:56:36;4.35;;;1.50;;
55409;SDS011;41279;43.546;16.426;2022-11-20T09:59:04;6.43;;;1.70;;
55409;SDS011;41279;43.546;16.426;2022-11-20T10:01:33;7.80;;;1.90;;
55409;SDS011;41279;43.546;16.426;2022-11-20T10:04:03;5.28;;;1.30;;
55409;SDS011;41279;43.546;16.426;2022-11-20T10:06:53;9.40;;;1.73;;
55409;SDS011;41279;43.546;16.426;2022-11-20T10:29:22;2.63;;;1.08;;
55409;SDS011;41279;43.546;16.426;2022-11-20T10:32:02;7.20;;;1.15;;
55409;SDS011;41279;43.546;16.426;2022-11-20T10:34:44;8.70;;;1.48;;
55409;SDS011;41279;43.546;16.426;2022-11-20T10:37:18;4.40;;;2.00;;
55409;SDS011;41279;43.546;16.426;2022-11-20T10:39:53;5.80;;;1.33;;
55409;SDS011;41279;43.546;16.426;2022-11-20T10:42:30;4.55;;;1.33;;
55409;SDS011;41279;43.546;16.426;2022-11-20T10:45:09;12.18;;;1.70;;
55409;SDS011;41279;43.546;16.426;2022-11-20T10:47:44;3.92;;;1.27;;
55409;SDS011;41279;43.546;16.426;2022-11-20T10:50:11;7.13;;;1.40;;
55409;SDS011;41279;43.546;16.426;2022-11-20T11:00:22;6.68;;;1.95;;
55409;SDS011;41279;43.546;16.426;2022-11-20T11:02:52;7.00;;;1.33;;
55409;SDS011;41279;43.546;16.426;2022-11-20T11:07:45;6.78;;;1.58;;
55409;SDS011;41279;43.546;16.426;2022-11-20T11:10:14;9.25;;;1.52;;
55409;SDS011;41279;43.546;16.426;2022-11-20T11:12:46;6.80;;;1.42;;
55409;SDS011;41279;43.546;16.426;2022-11-20T11:17:50;4.63;;;1.48;;
55409;SDS011;41279;43.546;16.426;2022-11-20T11:22:52;7.60;;;1.45;;
55409;SDS011;41279;43.546;16.426;2022-11-20T11:25:24;5.63;;;1.73;;
55409;SDS011;41279;43.546;16.426;2022-11-20T11:27:50;6.63;;;1.75;;
55409;SDS011;41279;43.546;16.426;2022-11-20T11:30:18;5.18;;;1.40;;
55409;SDS011;41279;43.546;16.426;2022-11-20T11:32:45;5.93;;;1.30;;
55409;SDS011;41279;43.546;16.426;2022-11-20T11:35:21;7.57;;;1.27;;
55409;SDS011;41279;43.546;16.426;2022-11-20T11:37:48;6.70;;;1.60;;
55409;SDS011;41279;43.546;16.426;2022-11-20T11:40:16;8.05;;;1.23;;
55409;SDS011;41279;43.546;16.426;2022-11-20T11:42:43;5.55;;;1.50;;
55409;SDS011;41279;43.546;16.426;2022-11-20T11:45:13;5.47;;;1.40;;
55409;SDS011;41279;43.546;16.426;2022-11-20T11:50:20;8.93;;;1.92;;
55409;SDS011;41279;43.546;16.426;2022-11-20T11:52:59;6.47;;;2.72;;
55409;SDS011;41279;43.546;16.426;2022-11-20T11:55:42;5.32;;;2.20;;
55409;SDS011;41279;43.546;16.426;2022-11-20T11:58:16;5.38;;;1.40;;
55409;SDS011;41279;43.546;16.426;2022-11-20T12:00:57;6.60;;;1.48;;
55409;SDS011;41279;43.546;16.426;2022-11-20T12:03:35;7.50;;;1.50;;
55409;SDS011;41279;43.546;16.426;2022-11-20T12:06:07;7.55;;;1.50;;
55409;SDS011;41279;43.546;16.426;2022-11-20T12:08:57;6.95;;;1.35;;
55409;SDS011;41279;43.546;16.426;2022-11-20T12:16:48;6.45;;;1.50;;
55409;SDS011;41279;43.546;16.426;2022-11-20T12:19:15;4.75;;;1.60;;
55409;SDS011;41279;43.546;16.426;2022-11-20T12:21:44;7.80;;;1.38;;
55409;SDS011;41279;43.546;16.426;2022-11-20T12:24:29;5.95;;;1.73;;
55409;SDS011;41279;43.546;16.426;2022-11-20T12:42:53;7.93;;;1.60;;
55409;SDS011;41279;43.546;16.426;2022-11-20T12:51:13;4.47;;;1.50;;
55409;SDS011;41279;43.546;16.426;2022-11-20T13:08:35;5.38;;;1.48;;
55409;SDS011;41279;43.546;16.426;2022-11-20T13:16:33;6.72;;;1.67;;
55409;SDS011;41279;43.546;16.426;2022-11-20T13:19:09;6.20;;;1.98;;
55409;SDS011;41279;43.546;16.426;2022-11-20T13:21:42;3.85;;;1.50;;
55409;SDS011;41279;43.546;16.426;2022-11-20T13:26:59;7.53;;;1.88;;
55409;SDS011;41279;43.546;16.426;2022-11-20T13:29:26;4.50;;;1.42;;
55409;SDS011;41279;43.546;16.426;2022-11-20T13:32:00;11.20;;;1.60;;
55409;SDS011;41279;43.546;16.426;2022-11-20T13:34:55;7.18;;;2.00;;
55409;SDS011;41279;43.546;16.426;2022-11-20T13:42:37;3.30;;;1.70;;
55409;SDS011;41279;43.546;16.426;2022-11-20T13:45:37;8.77;;;1.90;;
55409;SDS011;41279;43.546;16.426;2022-11-20T13:47:58;6.60;;;1.80;;
55409;SDS011;41279;43.546;16.426;2022-11-20T13:53:07;5.22;;;1.90;;
55409;SDS011;41279;43.546;16.426;2022-11-20T13:55:49;7.80;;;1.83;;
55409;SDS011;41279;43.546;16.426;2022-11-20T14:01:20;6.28;;;1.58;;
55409;SDS011;41279;43.546;16.426;2022-11-20T14:03:48;5.63;;;1.55;;
55409;SDS011;41279;43.546;16.426;2022-11-20T14:06:23;7.90;;;1.58;;
55409;SDS011;41279;43.546;16.426;2022-11-20T14:08:52;4.65;;;1.80;;
55409;SDS011;41279;43.546;16.426;2022-11-20T14:11:22;41.83;;;17.65;;
55409;SDS011;41279;43.546;16.426;2022-11-20T14:14:01;5.05;;;2.15;;
55409;SDS011;41279;43.546;16.426;2022-11-20T14:16:38;6.60;;;2.25;;
55409;SDS011;41279;43.546;16.426;2022-11-20T14:19:21;5.03;;;1.55;;
55409;SDS011;41279;43.546;16.426;2022-11-20T14:21:55;7.57;;;1.70;;
55409;SDS011;41279;43.546;16.426;2022-11-20T14:24:45;7.95;;;2.15;;
55409;SDS011;41279;43.546;16.426;2022-11-20T14:27:12;5.60;;;1.58;;
55409;SDS011;41279;43.546;16.426;2022-11-20T14:29:39;9.90;;;1.80;;
55409;SDS011;41279;43.546;16.426;2022-11-20T14:32:08;6.28;;;1.88;;
55409;SDS011;41279;43.546;16.426;2022-11-20T14:34:36;4.88;;;1.60;;
55409;SDS011;41279;43.546;16.426;2022-11-20T14:37:05;5.53;;;1.70;;
55409;SDS011;41279;43.546;16.426;2022-11-20T14:39:36;6.07;;;1.55;;
55409;SDS011;41279;43.546;16.426;2022-11-20T14:42:10;6.40;;;1.73;;
55409;SDS011;41279;43.546;16.426;2022-11-20T14:44:40;5.43;;;1.95;;
55409;SDS011;41279;43.546;16.426;2022-11-20T14:47:08;4.03;;;1.52;;
55409;SDS011;41279;43.546;16.426;2022-11-20T14:49:37;5.32;;;1.63;;
55409;SDS011;41279;43.546;16.426;2022-11-20T14:52:14;10.00;;;2.10;;
55409;SDS011;41279;43.546;16.426;2022-11-20T14:54:45;5.18;;;1.60;;
55409;SDS011;41279;43.546;16.426;2022-11-20T14:57:26;4.07;;;2.33;;
55409;SDS011;41279;43.546;16.426;2022-11-20T14:59:51;7.05;;;1.60;;
55409;SDS011;41279;43.546;16.426;2022-11-20T15:02:49;5.43;;;1.67;;
55409;SDS011;41279;43.546;16.426;2022-11-20T15:05:16;7.95;;;1.83;;
55409;SDS011;41279;43.546;16.426;2022-11-20T15:07:45;8.77;;;1.80;;
55409;SDS011;41279;43.546;16.426;2022-11-20T15:10:13;6.07;;;2.00;;
55409;SDS011;41279;43.546;16.426;2022-11-20T15:13:05;5.43;;;2.13;;
55409;SDS011;41279;43.546;16.426;2022-11-20T15:15:47;5.88;;;2.17;;
55409;SDS011;41279;43.546;16.426;2022-11-20T15:18:19;8.27;;;2.90;;
55409;SDS011;41279;43.546;16.426;2022-11-20T15:20:55;12.65;;;5.30;;
55409;SDS011;41279;43.546;16.426;2022-11-20T15:23:21;13.05;;;4.80;;
55409;SDS011;41279;43.546;16.426;2022-11-20T15:25:47;10.60;;;4.47;;
55409;SDS011;41279;43.546;16.426;2022-11-20T15:28:35;11.32;;;4.43;;
55409;SDS011;41279;43.546;16.426;2022-11-20T15:31:04;12.60;;;5.75;;
55409;SDS011;41279;43.546;16.426;2022-11-20T15:33:30;20.67;;;8.32;;
55409;SDS011;41279;43.546;16.426;2022-11-20T15:35:56;13.85;;;6.70;;
55409;SDS011;41279;43.546;16.426;2022-11-20T15:38:22;21.75;;;7.97;;
55409;SDS011;41279;43.546;16.426;2022-11-20T15:40:47;37.05;;;16.13;;
55409;SDS011;41279;43.546;16.426;2022-11-20T15:43:13;20.40;;;9.25;;
55409;SDS011;41279;43.546;16.426;2022-11-20T15:45:40;17.45;;;8.27;;
55409;SDS011;41279;43.546;16.426;2022-11-20T15:48:09;24.60;;;12.88;;
55409;SDS011;41279;43.546;16.426;2022-11-20T15:50:38;29.42;;;13.60;;
55409;SDS011;41279;43.546;16.426;2022-11-20T15:53:09;21.40;;;9.88;;
55409;SDS011;41279;43.546;16.426;2022-11-20T15:55:35;16.23;;;5.63;;
55409;SDS011;41279;43.546;16.426;2022-11-20T15:58:00;12.70;;;5.78;;
55409;SDS011;41279;43.546;16.426;2022-11-20T16:00:25;13.23;;;7.40;;
55409;SDS011;41279;43.546;16.426;2022-11-20T16:02:51;30.38;;;15.85;;
55409;SDS011;41279;43.546;16.426;2022-11-20T16:05:17;22.80;;;9.25;;
55409;SDS011;41279;43.546;16.426;2022-11-20T16:07:42;23.13;;;9.70;;
55409;SDS011;41279;43.546;16.426;2022-11-20T16:10:08;18.95;;;9.10;;
55409;SDS011;41279;43.546;16.426;2022-11-20T16:12:33;11.45;;;5.47;;
55409;SDS011;41279;43.546;16.426;2022-11-20T16:15:17;13.05;;;4.97;;
55409;SDS011;41279;43.546;16.426;2022-11-20T16:18:01;6.05;;;3.08;;
55409;SDS011;41279;43.546;16.426;2022-11-20T16:20:27;8.77;;;3.28;;
55409;SDS011;41279;43.546;16.426;2022-11-20T16:22:52;14.30;;;5.07;;
55409;SDS011;41279;43.546;16.426;2022-11-20T16:25:17;13.50;;;5.43;;
55409;SDS011;41279;43.546;16.426;2022-11-20T16:27:43;13.50;;;6.53;;
55409;SDS011;41279;43.546;16.426;2022-11-20T16:30:08;17.23;;;7.30;;
55409;SDS011;41279;43.546;16.426;2022-11-20T16:32:34;14.43;;;5.97;;
55409;SDS011;41279;43.546;16.426;2022-11-20T16:34:59;13.68;;;4.43;;
55409;SDS011;41279;43.546;16.426;2022-11-20T16:37:25;9.75;;;3.80;;
55409;SDS011;41279;43.546;16.426;2022-11-20T16:39:50;18.20;;;6.78;;